sensor_id;sensor_type;location;lat;lon;timestamp;temperature;humidity
18884;DHT22;9574;47.282;9.640;2023-07-13T00:02:05;18.10;99.90
18884;DHT22;9574;47.282;9.640;2023-07-13T00:04:33;18.10;99.90
18884;DHT22;9574;47.282;9.640;2023-07-13T00:07:00;18.00;99.90
18884;DHT22;9574;47.282;9.640;2023-07-13T00:09:28;18.00;99.90
18884;DHT22;9574;47.282;9.640;2023-07-13T00:11:56;18.00;99.90
18884;DHT22;9574;47.282;9.640;2023-07-13T00:14:24;18.00;99.90
18884;DHT22;9574;47.282;9.640;2023-07-13T00:16:51;18.00;99.90
18884;DHT22;9574;47.282;9.640;2023-07-13T00:19:18;18.10;99.90
18884;DHT22;9574;47.282;9.640;2023-07-13T00:21:46;18.00;99.90
18884;DHT22;9574;47.282;9.640;2023-07-13T00:24:15;18.00;99.90
18884;DHT22;9574;47.282;9.640;2023-07-13T00:26:45;18.10;99.90
18884;DHT22;9574;47.282;9.640;2023-07-13T00:29:12;18.30;99.90
18884;DHT22;9574;47.282;9.640;2023-07-13T00:31:39;18.60;99.90
18884;DHT22;9574;47.282;9.640;2023-07-13T00:34:06;18.70;99.90
18884;DHT22;9574;47.282;9.640;2023-07-13T00:36:33;18.60;99.90
18884;DHT22;9574;47.282;9.640;2023-07-13T00:39:01;18.50;99.90
18884;DHT22;9574;47.282;9.640;2023-07-13T00:41:29;18.40;99.90
18884;DHT22;9574;47.282;9.640;2023-07-13T00:43:58;18.40;99.90
18884;DHT22;9574;47.282;9.640;2023-07-13T00:46:27;18.50;99.90
18884;DHT22;9574;47.282;9.640;2023-07-13T00:48:56;18.50;99.90
18884;DHT22;9574;47.282;9.640;2023-07-13T00:51:29;18.50;99.90
18884;DHT22;9574;47.282;9.640;2023-07-13T00:53:59;18.40;99.90
18884;DHT22;9574;47.282;9.640;2023-07-13T00:56:27;18.30;99.90
18884;DHT22;9574;47.282;9.640;2023-07-13T00:58:55;18.20;99.90
18884;DHT22;9574;47.282;9.640;2023-07-13T01:01:24;18.10;99.90
18884;DHT22;9574;47.282;9.640;2023-07-13T01:03:51;18.00;99.90
18884;DHT22;9574;47.282;9.640;2023-07-13T01:06:19;17.90;99.90
18884;DHT22;9574;47.282;9.640;2023-07-13T01:08:47;17.90;99.90
18884;DHT22;9574;47.282;9.640;2023-07-13T01:11:18;17.80;99.90
18884;DHT22;9574;47.282;9.640;2023-07-13T01:13:45;17.70;99.90
18884;DHT22;9574;47.282;9.640;2023-07-13T01:16:17;17.70;99.90
18884;DHT22;9574;47.282;9.640;2023-07-13T01:18:47;17.80;99.90
18884;DHT22;9574;47.282;9.640;2023-07-13T01:21:15;17.70;99.90
18884;DHT22;9574;47.282;9.640;2023-07-13T01:23:44;17.70;99.90
18884;DHT22;9574;47.282;9.640;2023-07-13T01:26:11;17.80;99.90
18884;DHT22;9574;47.282;9.640;2023-07-13T01:28:38;18.00;99.90
18884;DHT22;9574;47.282;9.640;2023-07-13T01:31:05;18.30;99.90
18884;DHT22;9574;47.282;9.640;2023-07-13T01:33:33;18.50;99.90
18884;DHT22;9574;47.282;9.640;2023-07-13T01:36:01;18.70;99.90
18884;DHT22;9574;47.282;9.640;2023-07-13T01:38:29;18.70;99.90
18884;DHT22;9574;47.282;9.640;2023-07-13T01:40:56;18.60;99.90
18884;DHT22;9574;47.282;9.640;2023-07-13T01:43:23;18.40;99.90
18884;DHT22;9574;47.282;9.640;2023-07-13T01:45:50;18.20;99.90
18884;DHT22;9574;47.282;9.640;2023-07-13T01:48:17;18.10;99.90
18884;DHT22;9574;47.282;9.640;2023-07-13T01:50:47;18.00;99.90
18884;DHT22;9574;47.282;9.640;2023-07-13T01:53:14;18.00;99.90
18884;DHT22;9574;47.282;9.640;2023-07-13T01:55:42;17.90;99.90
18884;DHT22;9574;47.282;9.640;2023-07-13T01:58:09;17.90;99.90
18884;DHT22;9574;47.282;9.640;2023-07-13T02:00:36;17.80;99.90
18884;DHT22;9574;47.282;9.640;2023-07-13T02:03:03;17.70;99.90
18884;DHT22;9574;47.282;9.640;2023-07-13T02:05:30;17.70;99.90
18884;DHT22;9574;47.282;9.640;2023-07-13T02:07:57;17.60;99.90
18884;DHT22;9574;47.282;9.640;2023-07-13T02:10:24;17.50;99.90
18884;DHT22;9574;47.282;9.640;2023-07-13T02:12:53;17.40;99.90
18884;DHT22;9574;47.282;9.640;2023-07-13T02:15:20;17.40;99.90
18884;DHT22;9574;47.282;9.640;2023-07-13T02:17:47;17.40;99.90
18884;DHT22;9574;47.282;9.640;2023-07-13T02:20:13;17.60;99.90
18884;DHT22;9574;47.282;9.640;2023-07-13T02:22:40;17.90;99.90
18884;DHT22;9574;47.282;9.640;2023-07-13T02:25:08;18.20;99.90
18884;DHT22;9574;47.282;9.640;2023-07-13T02:27:35;18.30;99.90
18884;DHT22;9574;47.282;9.640;2023-07-13T02:30:04;18.40;99.90
18884;DHT22;9574;47.282;9.640;2023-07-13T02:32:31;18.30;99.90
18884;DHT22;9574;47.282;9.640;2023-07-13T02:34:59;18.20;99.90
18884;DHT22;9574;47.282;9.640;2023-07-13T02:37:26;18.10;99.90
18884;DHT22;9574;47.282;9.640;2023-07-13T02:39:53;18.10;99.90
18884;DHT22;9574;47.282;9.640;2023-07-13T02:42:20;18.10;99.90
18884;DHT22;9574;47.282;9.640;2023-07-13T02:44:47;18.20;99.90
18884;DHT22;9574;47.282;9.640;2023-07-13T02:47:16;18.30;99.90
18884;DHT22;9574;47.282;9.640;2023-07-13T02:49:43;18.10;99.90
18884;DHT22;9574;47.282;9.640;2023-07-13T02:52:10;17.90;99.90
18884;DHT22;9574;47.282;9.640;2023-07-13T02:54:37;17.80;99.90
18884;DHT22;9574;47.282;9.640;2023-07-13T02:57:05;17.60;99.90
18884;DHT22;9574;47.282;9.640;2023-07-13T02:59:32;17.60;99.90
18884;DHT22;9574;47.282;9.640;2023-07-13T03:02:00;17.50;99.90
18884;DHT22;9574;47.282;9.640;2023-07-13T03:04:28;17.40;99.90
18884;DHT22;9574;47.282;9.640;2023-07-13T03:06:55;17.30;99.90
18884;DHT22;9574;47.282;9.640;2023-07-13T03:09:24;17.30;99.90
18884;DHT22;9574;47.282;9.640;2023-07-13T03:11:53;17.30;99.90
18884;DHT22;9574;47.282;9.640;2023-07-13T03:14:21;17.30;99.90
18884;DHT22;9574;47.282;9.640;2023-07-13T03:16:48;17.20;99.90
18884;DHT22;9574;47.282;9.640;2023-07-13T03:19:16;17.10;99.90
18884;DHT22;9574;47.282;9.640;2023-07-13T03:21:44;17.10;99.90
18884;DHT22;9574;47.282;9.640;2023-07-13T03:24:11;17.10;99.90
18884;DHT22;9574;47.282;9.640;2023-07-13T03:26:38;17.20;99.90
18884;DHT22;9574;47.282;9.640;2023-07-13T03:29:05;17.10;99.90
18884;DHT22;9574;47.282;9.640;2023-07-13T03:31:34;17.20;99.90
18884;DHT22;9574;47.282;9.640;2023-07-13T03:34:02;17.20;99.90
18884;DHT22;9574;47.282;9.640;2023-07-13T03:36:30;17.30;99.90
18884;DHT22;9574;47.282;9.640;2023-07-13T03:39:02;17.60;99.90
18884;DHT22;9574;47.282;9.640;2023-07-13T03:41:30;17.90;99.90
18884;DHT22;9574;47.282;9.640;2023-07-13T03:43:57;18.10;99.90
18884;DHT22;9574;47.282;9.640;2023-07-13T03:46:24;18.20;99.90
18884;DHT22;9574;47.282;9.640;2023-07-13T03:48:51;18.00;99.90
18884;DHT22;9574;47.282;9.640;2023-07-13T03:51:19;17.80;99.90
18884;DHT22;9574;47.282;9.640;2023-07-13T03:53:47;17.60;99.90
18884;DHT22;9574;47.282;9.640;2023-07-13T03:56:16;17.50;99.90
18884;DHT22;9574;47.282;9.640;2023-07-13T03:58:46;17.50;99.90
18884;DHT22;9574;47.282;9.640;2023-07-13T04:01:15;17.40;99.90
18884;DHT22;9574;47.282;9.640;2023-07-13T04:03:42;17.40;99.90
18884;DHT22;9574;47.282;9.640;2023-07-13T04:06:15;17.50;99.90
18884;DHT22;9574;47.282;9.640;2023-07-13T04:08:47;17.50;99.90
18884;DHT22;9574;47.282;9.640;2023-07-13T04:11:17;17.40;99.90
18884;DHT22;9574;47.282;9.640;2023-07-13T04:13:44;17.40;99.90
18884;DHT22;9574;47.282;9.640;2023-07-13T04:16:11;17.50;99.90
18884;DHT22;9574;47.282;9.640;2023-07-13T04:18:38;17.70;99.90
18884;DHT22;9574;47.282;9.640;2023-07-13T04:21:07;17.90;99.90
18884;DHT22;9574;47.282;9.640;2023-07-13T04:23:34;18.10;99.90
18884;DHT22;9574;47.282;9.640;2023-07-13T04:26:01;18.20;99.90
18884;DHT22;9574;47.282;9.640;2023-07-13T04:28:30;18.20;99.90
18884;DHT22;9574;47.282;9.640;2023-07-13T04:30:57;18.30;99.90
18884;DHT22;9574;47.282;9.640;2023-07-13T04:33:26;18.20;99.90
18884;DHT22;9574;47.282;9.640;2023-07-13T04:35:55;18.20;99.90
18884;DHT22;9574;47.282;9.640;2023-07-13T04:38:23;18.10;99.90
18884;DHT22;9574;47.282;9.640;2023-07-13T04:40:51;17.90;99.90
18884;DHT22;9574;47.282;9.640;2023-07-13T04:43:18;17.80;99.90
18884;DHT22;9574;47.282;9.640;2023-07-13T04:45:47;17.70;99.90
18884;DHT22;9574;47.282;9.640;2023-07-13T04:48:14;17.70;99.90
18884;DHT22;9574;47.282;9.640;2023-07-13T04:50:40;17.70;99.90
18884;DHT22;9574;47.282;9.640;2023-07-13T04:53:08;17.70;99.90
18884;DHT22;9574;47.282;9.640;2023-07-13T04:55:36;17.70;99.90
18884;DHT22;9574;47.282;9.640;2023-07-13T04:58:03;17.70;99.90
18884;DHT22;9574;47.282;9.640;2023-07-13T05:00:31;17.70;99.90
18884;DHT22;9574;47.282;9.640;2023-07-13T05:02:59;17.80;99.90
18884;DHT22;9574;47.282;9.640;2023-07-13T05:05:27;17.70;99.90
18884;DHT22;9574;47.282;9.640;2023-07-13T05:07:54;17.70;99.90
18884;DHT22;9574;47.282;9.640;2023-07-13T05:10:21;17.80;99.90
18884;DHT22;9574;47.282;9.640;2023-07-13T05:12:49;17.80;99.90
18884;DHT22;9574;47.282;9.640;2023-07-13T05:15:16;17.80;99.90
18884;DHT22;9574;47.282;9.640;2023-07-13T05:17:46;17.90;99.90
18884;DHT22;9574;47.282;9.640;2023-07-13T05:20:16;17.90;99.90
18884;DHT22;9574;47.282;9.640;2023-07-13T05:22:43;17.90;99.90
18884;DHT22;9574;47.282;9.640;2023-07-13T05:25:12;17.90;99.90
18884;DHT22;9574;47.282;9.640;2023-07-13T05:27:39;17.90;99.90
18884;DHT22;9574;47.282;9.640;2023-07-13T05:30:07;17.90;99.90
18884;DHT22;9574;47.282;9.640;2023-07-13T05:32:36;17.80;99.90
18884;DHT22;9574;47.282;9.640;2023-07-13T05:35:04;17.80;99.90
18884;DHT22;9574;47.282;9.640;2023-07-13T05:37:32;17.70;99.90
18884;DHT22;9574;47.282;9.640;2023-07-13T05:40:00;17.80;99.90
18884;DHT22;9574;47.282;9.640;2023-07-13T05:42:27;17.90;99.90
18884;DHT22;9574;47.282;9.640;2023-07-13T05:44:54;17.90;99.90
18884;DHT22;9574;47.282;9.640;2023-07-13T05:47:21;18.00;99.90
18884;DHT22;9574;47.282;9.640;2023-07-13T05:49:48;18.00;99.90
18884;DHT22;9574;47.282;9.640;2023-07-13T05:52:15;18.10;99.90
18884;DHT22;9574;47.282;9.640;2023-07-13T05:54:43;18.10;99.90
18884;DHT22;9574;47.282;9.640;2023-07-13T05:57:10;18.10;99.90
18884;DHT22;9574;47.282;9.640;2023-07-13T05:59:37;18.10;99.90
18884;DHT22;9574;47.282;9.640;2023-07-13T06:02:05;18.10;99.90
18884;DHT22;9574;47.282;9.640;2023-07-13T06:04:32;18.30;99.90
18884;DHT22;9574;47.282;9.640;2023-07-13T06:06:59;18.50;99.90
18884;DHT22;9574;47.282;9.640;2023-07-13T06:09:26;18.70;99.90
18884;DHT22;9574;47.282;9.640;2023-07-13T06:11:55;18.80;99.90
18884;DHT22;9574;47.282;9.640;2023-07-13T06:14:21;19.00;99.90
18884;DHT22;9574;47.282;9.640;2023-07-13T06:16:48;19.00;99.90
18884;DHT22;9574;47.282;9.640;2023-07-13T06:19:15;19.10;99.90
18884;DHT22;9574;47.282;9.640;2023-07-13T06:21:42;19.20;99.90
18884;DHT22;9574;47.282;9.640;2023-07-13T06:24:10;19.20;99.90
18884;DHT22;9574;47.282;9.640;2023-07-13T06:26:37;19.30;99.90
18884;DHT22;9574;47.282;9.640;2023-07-13T06:29:06;19.20;99.90
18884;DHT22;9574;47.282;9.640;2023-07-13T06:31:33;19.30;99.90
18884;DHT22;9574;47.282;9.640;2023-07-13T06:34:00;19.40;99.90
18884;DHT22;9574;47.282;9.640;2023-07-13T06:36:27;19.20;99.90
18884;DHT22;9574;47.282;9.640;2023-07-13T06:38:54;18.80;99.90
18884;DHT22;9574;47.282;9.640;2023-07-13T06:41:20;18.50;99.90
18884;DHT22;9574;47.282;9.640;2023-07-13T06:43:48;18.60;99.90
18884;DHT22;9574;47.282;9.640;2023-07-13T06:46:16;18.80;99.90
18884;DHT22;9574;47.282;9.640;2023-07-13T06:48:43;18.80;99.90
18884;DHT22;9574;47.282;9.640;2023-07-13T06:51:10;18.50;99.90
18884;DHT22;9574;47.282;9.640;2023-07-13T06:53:37;18.40;99.90
18884;DHT22;9574;47.282;9.640;2023-07-13T06:56:04;18.40;99.90
18884;DHT22;9574;47.282;9.640;2023-07-13T06:58:34;18.50;99.90
18884;DHT22;9574;47.282;9.640;2023-07-13T07:01:02;18.60;99.90
18884;DHT22;9574;47.282;9.640;2023-07-13T07:03:30;18.60;99.90
18884;DHT22;9574;47.282;9.640;2023-07-13T07:06:00;18.80;99.90
18884;DHT22;9574;47.282;9.640;2023-07-13T07:08:27;18.80;99.90
18884;DHT22;9574;47.282;9.640;2023-07-13T07:10:54;18.90;99.90
18884;DHT22;9574;47.282;9.640;2023-07-13T07:13:21;18.90;99.90
18884;DHT22;9574;47.282;9.640;2023-07-13T07:15:49;19.00;99.90
18884;DHT22;9574;47.282;9.640;2023-07-13T07:18:16;19.00;99.90
18884;DHT22;9574;47.282;9.640;2023-07-13T07:20:45;18.80;99.90
18884;DHT22;9574;47.282;9.640;2023-07-13T07:23:12;18.90;99.90
18884;DHT22;9574;47.282;9.640;2023-07-13T07:25:40;19.00;99.90
18884;DHT22;9574;47.282;9.640;2023-07-13T07:28:07;18.90;99.90
18884;DHT22;9574;47.282;9.640;2023-07-13T07:30:34;18.80;99.90
18884;DHT22;9574;47.282;9.640;2023-07-13T07:33:02;18.60;99.90
18884;DHT22;9574;47.282;9.640;2023-07-13T07:35:29;18.60;99.90
18884;DHT22;9574;47.282;9.640;2023-07-13T07:37:57;18.80;99.90
18884;DHT22;9574;47.282;9.640;2023-07-13T07:40:24;19.00;99.90
18884;DHT22;9574;47.282;9.640;2023-07-13T07:42:52;19.10;99.90
18884;DHT22;9574;47.282;9.640;2023-07-13T07:45:19;19.10;99.90
18884;DHT22;9574;47.282;9.640;2023-07-13T07:47:46;19.10;99.90
18884;DHT22;9574;47.282;9.640;2023-07-13T07:50:13;19.10;99.90
18884;DHT22;9574;47.282;9.640;2023-07-13T07:52:40;19.20;99.90
18884;DHT22;9574;47.282;9.640;2023-07-13T07:55:10;19.20;99.90
18884;DHT22;9574;47.282;9.640;2023-07-13T07:57:37;19.20;99.90
18884;DHT22;9574;47.282;9.640;2023-07-13T08:00:05;19.10;99.90
18884;DHT22;9574;47.282;9.640;2023-07-13T08:02:32;18.90;99.90
18884;DHT22;9574;47.282;9.640;2023-07-13T08:04:59;18.80;99.90
18884;DHT22;9574;47.282;9.640;2023-07-13T08:07:26;18.70;99.90
18884;DHT22;9574;47.282;9.640;2023-07-13T08:09:53;18.60;99.90
18884;DHT22;9574;47.282;9.640;2023-07-13T08:12:21;18.60;99.90
18884;DHT22;9574;47.282;9.640;2023-07-13T08:14:50;18.60;99.90
18884;DHT22;9574;47.282;9.640;2023-07-13T08:17:19;18.90;99.90
18884;DHT22;9574;47.282;9.640;2023-07-13T08:19:46;19.10;99.90
18884;DHT22;9574;47.282;9.640;2023-07-13T08:22:13;19.30;99.90
18884;DHT22;9574;47.282;9.640;2023-07-13T08:24:40;19.30;99.90
18884;DHT22;9574;47.282;9.640;2023-07-13T08:27:08;19.50;99.90
18884;DHT22;9574;47.282;9.640;2023-07-13T08:29:37;19.80;99.90
18884;DHT22;9574;47.282;9.640;2023-07-13T08:32:05;20.10;99.90
18884;DHT22;9574;47.282;9.640;2023-07-13T08:34:34;20.50;99.90
18884;DHT22;9574;47.282;9.640;2023-07-13T08:37:01;20.50;99.90
18884;DHT22;9574;47.282;9.640;2023-07-13T08:39:30;20.60;99.90
18884;DHT22;9574;47.282;9.640;2023-07-13T08:42:01;20.70;99.90
18884;DHT22;9574;47.282;9.640;2023-07-13T08:44:42;20.90;99.90
18884;DHT22;9574;47.282;9.640;2023-07-13T08:47:14;21.20;99.90
18884;DHT22;9574;47.282;9.640;2023-07-13T08:49:43;21.40;99.90
18884;DHT22;9574;47.282;9.640;2023-07-13T08:52:16;21.50;99.90
18884;DHT22;9574;47.282;9.640;2023-07-13T08:54:47;21.50;99.90
18884;DHT22;9574;47.282;9.640;2023-07-13T08:57:20;21.50;99.90
18884;DHT22;9574;47.282;9.640;2023-07-13T08:59:49;21.70;99.90
18884;DHT22;9574;47.282;9.640;2023-07-13T09:02:25;21.60;99.90
18884;DHT22;9574;47.282;9.640;2023-07-13T09:04:56;22.00;99.90
18884;DHT22;9574;47.282;9.640;2023-07-13T09:07:37;22.30;99.90
18884;DHT22;9574;47.282;9.640;2023-07-13T09:10:15;22.70;99.90
18884;DHT22;9574;47.282;9.640;2023-07-13T09:12:53;23.00;99.90
18884;DHT22;9574;47.282;9.640;2023-07-13T09:15:27;23.20;99.90
18884;DHT22;9574;47.282;9.640;2023-07-13T09:18:00;23.20;99.90
18884;DHT22;9574;47.282;9.640;2023-07-13T09:20:31;22.90;99.90
18884;DHT22;9574;47.282;9.640;2023-07-13T09:23:00;22.80;99.90
18884;DHT22;9574;47.282;9.640;2023-07-13T09:25:31;22.80;99.90
18884;DHT22;9574;47.282;9.640;2023-07-13T09:28:12;22.60;99.90
18884;DHT22;9574;47.282;9.640;2023-07-13T09:30:50;22.40;99.90
18884;DHT22;9574;47.282;9.640;2023-07-13T09:33:25;22.50;99.90
18884;DHT22;9574;47.282;9.640;2023-07-13T09:35:54;22.50;99.90
18884;DHT22;9574;47.282;9.640;2023-07-13T09:38:24;22.50;99.90
18884;DHT22;9574;47.282;9.640;2023-07-13T09:41:15;22.30;99.90
18884;DHT22;9574;47.282;9.640;2023-07-13T09:44:01;22.50;99.90
18884;DHT22;9574;47.282;9.640;2023-07-13T09:46:30;22.50;99.90
18884;DHT22;9574;47.282;9.640;2023-07-13T09:48:59;22.60;99.90
18884;DHT22;9574;47.282;9.640;2023-07-13T09:51:26;22.60;99.90
18884;DHT22;9574;47.282;9.640;2023-07-13T09:53:53;23.00;99.90
18884;DHT22;9574;47.282;9.640;2023-07-13T09:56:22;23.40;99.90
18884;DHT22;9574;47.282;9.640;2023-07-13T09:58:49;23.60;99.90
18884;DHT22;9574;47.282;9.640;2023-07-13T10:01:33;23.60;99.90
18884;DHT22;9574;47.282;9.640;2023-07-13T10:04:00;23.60;99.90
18884;DHT22;9574;47.282;9.640;2023-07-13T10:06:27;23.70;99.90
18884;DHT22;9574;47.282;9.640;2023-07-13T10:08:56;23.60;99.90
18884;DHT22;9574;47.282;9.640;2023-07-13T10:11:26;23.30;99.90
18884;DHT22;9574;47.282;9.640;2023-07-13T10:13:56;23.30;99.90
18884;DHT22;9574;47.282;9.640;2023-07-13T10:16:25;23.30;99.90
18884;DHT22;9574;47.282;9.640;2023-07-13T10:18:56;23.30;99.90
18884;DHT22;9574;47.282;9.640;2023-07-13T10:21:30;23.40;99.90
18884;DHT22;9574;47.282;9.640;2023-07-13T10:24:04;23.30;99.90
18884;DHT22;9574;47.282;9.640;2023-07-13T10:26:34;23.00;99.90
18884;DHT22;9574;47.282;9.640;2023-07-13T10:29:06;23.00;99.90
18884;DHT22;9574;47.282;9.640;2023-07-13T10:31:39;23.10;99.90
18884;DHT22;9574;47.282;9.640;2023-07-13T10:34:11;23.00;99.90
18884;DHT22;9574;47.282;9.640;2023-07-13T10:36:40;22.90;99.90
18884;DHT22;9574;47.282;9.640;2023-07-13T10:39:13;22.90;99.90
18884;DHT22;9574;47.282;9.640;2023-07-13T10:41:43;22.90;99.90
18884;DHT22;9574;47.282;9.640;2023-07-13T10:44:18;22.70;99.90
18884;DHT22;9574;47.282;9.640;2023-07-13T10:46:48;22.60;99.90
18884;DHT22;9574;47.282;9.640;2023-07-13T10:49:17;22.60;99.90
18884;DHT22;9574;47.282;9.640;2023-07-13T10:51:50;22.40;99.90
18884;DHT22;9574;47.282;9.640;2023-07-13T10:54:20;22.10;99.90
18884;DHT22;9574;47.282;9.640;2023-07-13T10:56:52;21.90;99.90
18884;DHT22;9574;47.282;9.640;2023-07-13T10:59:25;21.80;99.90
18884;DHT22;9574;47.282;9.640;2023-07-13T11:01:57;21.70;99.90
18884;DHT22;9574;47.282;9.640;2023-07-13T11:04:27;21.60;99.90
18884;DHT22;9574;47.282;9.640;2023-07-13T11:06:58;21.60;99.90
18884;DHT22;9574;47.282;9.640;2023-07-13T11:09:37;21.60;99.90
18884;DHT22;9574;47.282;9.640;2023-07-13T11:12:26;21.70;99.90
18884;DHT22;9574;47.282;9.640;2023-07-13T11:15:06;21.70;99.90
18884;DHT22;9574;47.282;9.640;2023-07-13T11:17:47;21.70;99.90
18884;DHT22;9574;47.282;9.640;2023-07-13T11:20:40;21.90;99.90
18884;DHT22;9574;47.282;9.640;2023-07-13T11:26:02;21.90;99.90
18884;DHT22;9574;47.282;9.640;2023-07-13T11:28:31;22.00;99.90
18884;DHT22;9574;47.282;9.640;2023-07-13T11:31:12;22.20;99.90
18884;DHT22;9574;47.282;9.640;2023-07-13T11:34:00;22.20;99.90
18884;DHT22;9574;47.282;9.640;2023-07-13T11:36:36;22.30;99.90
18884;DHT22;9574;47.282;9.640;2023-07-13T11:39:14;22.40;99.90
18884;DHT22;9574;47.282;9.640;2023-07-13T11:42:02;22.70;99.90
18884;DHT22;9574;47.282;9.640;2023-07-13T11:44:32;22.70;99.90
18884;DHT22;9574;47.282;9.640;2023-07-13T11:47:09;22.90;99.90
18884;DHT22;9574;47.282;9.640;2023-07-13T11:49:42;22.90;99.90
18884;DHT22;9574;47.282;9.640;2023-07-13T11:52:18;22.90;99.90
18884;DHT22;9574;47.282;9.640;2023-07-13T11:54:49;22.80;99.90
18884;DHT22;9574;47.282;9.640;2023-07-13T11:57:25;22.80;99.90
18884;DHT22;9574;47.282;9.640;2023-07-13T11:59:53;22.80;99.90
18884;DHT22;9574;47.282;9.640;2023-07-13T12:02:27;22.90;99.90
18884;DHT22;9574;47.282;9.640;2023-07-13T12:04:55;22.90;99.90
18884;DHT22;9574;47.282;9.640;2023-07-13T12:07:24;23.20;99.90
18884;DHT22;9574;47.282;9.640;2023-07-13T12:09:51;23.60;99.90
18884;DHT22;9574;47.282;9.640;2023-07-13T12:12:21;24.10;99.90
18884;DHT22;9574;47.282;9.640;2023-07-13T12:14:51;24.20;99.90
18884;DHT22;9574;47.282;9.640;2023-07-13T12:17:20;24.40;99.90
18884;DHT22;9574;47.282;9.640;2023-07-13T12:19:47;24.40;99.90
18884;DHT22;9574;47.282;9.640;2023-07-13T12:22:16;24.80;99.90
18884;DHT22;9574;47.282;9.640;2023-07-13T12:24:46;25.20;99.90
18884;DHT22;9574;47.282;9.640;2023-07-13T12:27:19;25.20;99.90
18884;DHT22;9574;47.282;9.640;2023-07-13T12:29:52;25.00;99.90
18884;DHT22;9574;47.282;9.640;2023-07-13T12:32:20;24.70;99.90
18884;DHT22;9574;47.282;9.640;2023-07-13T12:34:52;24.50;99.90
18884;DHT22;9574;47.282;9.640;2023-07-13T12:37:20;24.30;99.90
18884;DHT22;9574;47.282;9.640;2023-07-13T12:39:52;24.10;99.90
18884;DHT22;9574;47.282;9.640;2023-07-13T12:42:21;23.90;99.90
18884;DHT22;9574;47.282;9.640;2023-07-13T12:44:53;24.00;99.90
18884;DHT22;9574;47.282;9.640;2023-07-13T12:47:20;24.10;99.90
18884;DHT22;9574;47.282;9.640;2023-07-13T12:49:49;24.00;99.90
18884;DHT22;9574;47.282;9.640;2023-07-13T12:52:20;23.90;99.90
18884;DHT22;9574;47.282;9.640;2023-07-13T12:54:56;23.60;99.90
18884;DHT22;9574;47.282;9.640;2023-07-13T12:57:24;23.50;99.90
18884;DHT22;9574;47.282;9.640;2023-07-13T12:59:52;23.30;99.90
18884;DHT22;9574;47.282;9.640;2023-07-13T13:02:30;23.20;99.90
18884;DHT22;9574;47.282;9.640;2023-07-13T13:04:59;23.20;99.90
18884;DHT22;9574;47.282;9.640;2023-07-13T13:07:26;23.10;99.90
18884;DHT22;9574;47.282;9.640;2023-07-13T13:09:54;23.10;99.90
18884;DHT22;9574;47.282;9.640;2023-07-13T13:12:22;23.10;99.90
18884;DHT22;9574;47.282;9.640;2023-07-13T13:14:52;23.20;99.90
18884;DHT22;9574;47.282;9.640;2023-07-13T13:17:21;23.30;99.90
18884;DHT22;9574;47.282;9.640;2023-07-13T13:19:49;23.60;99.90
18884;DHT22;9574;47.282;9.640;2023-07-13T13:22:18;23.80;99.90
18884;DHT22;9574;47.282;9.640;2023-07-13T13:24:45;24.00;99.90
18884;DHT22;9574;47.282;9.640;2023-07-13T13:27:16;24.10;99.90
18884;DHT22;9574;47.282;9.640;2023-07-13T13:29:45;24.00;99.90
18884;DHT22;9574;47.282;9.640;2023-07-13T13:32:13;24.20;99.90
18884;DHT22;9574;47.282;9.640;2023-07-13T13:34:41;24.50;99.90
18884;DHT22;9574;47.282;9.640;2023-07-13T13:37:18;24.60;99.90
18884;DHT22;9574;47.282;9.640;2023-07-13T13:39:46;24.60;99.90
18884;DHT22;9574;47.282;9.640;2023-07-13T13:42:13;24.80;99.90
18884;DHT22;9574;47.282;9.640;2023-07-13T13:44:41;24.70;99.90
18884;DHT22;9574;47.282;9.640;2023-07-13T13:47:22;25.10;99.90
18884;DHT22;9574;47.282;9.640;2023-07-13T13:49:54;25.60;99.90
18884;DHT22;9574;47.282;9.640;2023-07-13T13:52:21;26.00;99.90
18884;DHT22;9574;47.282;9.640;2023-07-13T13:54:48;26.20;99.90
18884;DHT22;9574;47.282;9.640;2023-07-13T13:57:15;25.90;99.90
18884;DHT22;9574;47.282;9.640;2023-07-13T13:59:44;25.70;99.90
18884;DHT22;9574;47.282;9.640;2023-07-13T14:02:22;26.00;99.90
18884;DHT22;9574;47.282;9.640;2023-07-13T14:04:52;25.90;99.90
18884;DHT22;9574;47.282;9.640;2023-07-13T14:07:20;26.00;99.90
18884;DHT22;9574;47.282;9.640;2023-07-13T14:09:47;26.50;99.90
18884;DHT22;9574;47.282;9.640;2023-07-13T14:12:14;26.80;99.90
18884;DHT22;9574;47.282;9.640;2023-07-13T14:14:41;26.90;99.90
18884;DHT22;9574;47.282;9.640;2023-07-13T14:17:19;26.80;99.90
18884;DHT22;9574;47.282;9.640;2023-07-13T14:19:47;26.30;99.90
18884;DHT22;9574;47.282;9.640;2023-07-13T14:22:16;25.90;99.90
18884;DHT22;9574;47.282;9.640;2023-07-13T14:24:44;25.70;99.90
18884;DHT22;9574;47.282;9.640;2023-07-13T14:27:11;25.60;99.90
18884;DHT22;9574;47.282;9.640;2023-07-13T14:29:39;25.50;99.90
18884;DHT22;9574;47.282;9.640;2023-07-13T14:32:10;25.30;99.90
18884;DHT22;9574;47.282;9.640;2023-07-13T14:34:39;25.30;99.90
18884;DHT22;9574;47.282;9.640;2023-07-13T14:37:12;25.60;99.90
18884;DHT22;9574;47.282;9.640;2023-07-13T14:39:40;25.90;99.90
18884;DHT22;9574;47.282;9.640;2023-07-13T14:42:09;26.00;99.90
18884;DHT22;9574;47.282;9.640;2023-07-13T14:44:38;25.90;99.90
18884;DHT22;9574;47.282;9.640;2023-07-13T14:47:06;25.60;99.90
18884;DHT22;9574;47.282;9.640;2023-07-13T14:49:36;25.60;99.90
18884;DHT22;9574;47.282;9.640;2023-07-13T14:52:10;25.70;99.90
18884;DHT22;9574;47.282;9.640;2023-07-13T14:54:39;26.20;99.90
18884;DHT22;9574;47.282;9.640;2023-07-13T14:57:09;26.50;99.90
18884;DHT22;9574;47.282;9.640;2023-07-13T14:59:37;26.80;99.90
18884;DHT22;9574;47.282;9.640;2023-07-13T15:02:16;26.90;99.90
18884;DHT22;9574;47.282;9.640;2023-07-13T15:04:44;26.90;99.90
18884;DHT22;9574;47.282;9.640;2023-07-13T15:07:13;27.20;99.90
18884;DHT22;9574;47.282;9.640;2023-07-13T15:09:41;27.30;99.90
18884;DHT22;9574;47.282;9.640;2023-07-13T15:12:09;27.40;99.90
18884;DHT22;9574;47.282;9.640;2023-07-13T15:14:36;27.40;99.90
18884;DHT22;9574;47.282;9.640;2023-07-13T15:17:03;27.30;99.90
18884;DHT22;9574;47.282;9.640;2023-07-13T15:19:31;27.20;99.90
18884;DHT22;9574;47.282;9.640;2023-07-13T15:21:58;27.00;99.90
18884;DHT22;9574;47.282;9.640;2023-07-13T15:24:29;26.90;99.90
18884;DHT22;9574;47.282;9.640;2023-07-13T15:26:56;26.80;99.90
18884;DHT22;9574;47.282;9.640;2023-07-13T15:29:23;26.60;99.90
18884;DHT22;9574;47.282;9.640;2023-07-13T15:31:50;26.70;99.90
18884;DHT22;9574;47.282;9.640;2023-07-13T15:34:20;26.80;99.90
18884;DHT22;9574;47.282;9.640;2023-07-13T15:36:49;26.90;99.90
18884;DHT22;9574;47.282;9.640;2023-07-13T15:39:17;27.10;99.90
18884;DHT22;9574;47.282;9.640;2023-07-13T15:41:46;27.20;99.90
18884;DHT22;9574;47.282;9.640;2023-07-13T15:44:26;27.20;99.90
18884;DHT22;9574;47.282;9.640;2023-07-13T15:46:55;27.00;99.90
18884;DHT22;9574;47.282;9.640;2023-07-13T15:49:22;26.90;99.90
18884;DHT22;9574;47.282;9.640;2023-07-13T15:51:49;26.90;99.90
18884;DHT22;9574;47.282;9.640;2023-07-13T15:54:17;27.00;99.90
18884;DHT22;9574;47.282;9.640;2023-07-13T15:56:50;26.80;99.90
18884;DHT22;9574;47.282;9.640;2023-07-13T15:59:18;26.80;99.90
18884;DHT22;9574;47.282;9.640;2023-07-13T16:01:45;26.60;99.90